createdAt,value
2017-02-22T00:00:26.531Z,16.42
2017-02-22T00:01:07.024Z,16.42
2017-02-22T00:01:47.522Z,16.42
2017-02-22T00:02:28.007Z,16.42
2017-02-22T00:03:08.497Z,16.23
2017-02-22T00:03:48.981Z,16.42
2017-02-22T00:04:29.473Z,16.52
2017-02-22T00:05:09.971Z,16.42
2017-02-22T00:05:50.473Z,16.42
2017-02-22T00:06:30.971Z,16.32
2017-02-22T00:07:11.467Z,16.42
2017-02-22T00:07:51.950Z,16.23
2017-02-22T00:08:32.603Z,16.23
2017-02-22T00:09:13.089Z,16.52
2017-02-22T00:09:53.584Z,16.32
2017-02-22T00:10:34.071Z,16.32
2017-02-22T00:11:14.568Z,16.42
2017-02-22T00:11:55.068Z,16.42
2017-02-22T00:12:35.586Z,16.52
2017-02-22T00:13:16.071Z,16.42
2017-02-22T00:13:56.577Z,16.42
2017-02-22T00:14:37.067Z,16.42
2017-02-22T00:15:17.581Z,16.42
2017-02-22T00:15:58.066Z,16.42
2017-02-22T00:16:38.561Z,16.42
2017-02-22T00:17:19.052Z,16.42
2017-02-22T00:17:59.522Z,16.42
2017-02-22T00:18:40.023Z,16.32
2017-02-22T00:19:20.510Z,16.32
2017-02-22T00:20:01.005Z,16.32
2017-02-22T00:20:41.500Z,16.42
2017-02-22T00:21:21.989Z,16.32
2017-02-22T00:22:02.480Z,16.32
2017-02-22T00:22:42.967Z,16.61
2017-02-22T00:23:23.465Z,16.61
2017-02-22T00:24:03.955Z,16.52
2017-02-22T00:24:44.453Z,16.42
2017-02-22T00:25:24.950Z,16.32
2017-02-22T00:26:05.467Z,16.52
2017-02-22T00:26:45.953Z,16.52
2017-02-22T00:27:26.453Z,16.42
2017-02-22T00:28:06.952Z,16.52
2017-02-22T00:28:47.446Z,16.61
2017-02-22T00:29:27.955Z,16.32
2017-02-22T00:30:08.447Z,16.52
2017-02-22T00:30:48.928Z,16.61
2017-02-22T00:31:29.414Z,16.52
2017-02-22T00:32:09.907Z,16.61
2017-02-22T00:32:50.397Z,16.42
2017-02-22T00:33:30.894Z,16.42
2017-02-22T00:34:11.398Z,16.52
2017-02-22T00:34:51.905Z,16.32
2017-02-22T00:35:32.395Z,16.32
2017-02-22T00:36:12.894Z,16.23
2017-02-22T00:36:53.391Z,16.71
2017-02-22T00:37:33.909Z,16.32
2017-02-22T00:38:14.393Z,16.52
2017-02-22T00:38:54.883Z,16.61
2017-02-22T00:39:35.384Z,16.52
2017-02-22T00:40:15.866Z,16.52
2017-02-22T00:40:56.353Z,16.32
2017-02-22T00:41:36.845Z,16.32
2017-02-22T00:42:17.348Z,16.52
2017-02-22T00:42:58.015Z,16.32
2017-02-22T00:43:38.495Z,16.32
2017-02-22T00:44:19.002Z,16.32
2017-02-22T00:44:59.490Z,16.32
2017-02-22T00:45:39.984Z,16.23
2017-02-22T00:46:20.464Z,16.23
2017-02-22T00:47:00.955Z,16.42
2017-02-22T00:47:41.463Z,16.42
2017-02-22T00:48:21.953Z,16.52
2017-02-22T00:49:02.448Z,16.42
2017-02-22T00:49:42.937Z,16.42
2017-02-22T00:50:23.430Z,16.52
2017-02-22T00:51:03.927Z,16.42
2017-02-22T00:51:44.427Z,16.42
2017-02-22T00:52:24.930Z,16.61
2017-02-22T00:53:05.424Z,16.61
2017-02-22T00:53:45.906Z,16.61
2017-02-22T00:54:26.403Z,16.42
2017-02-22T00:55:06.902Z,16.42
2017-02-22T00:55:47.392Z,16.42
2017-02-22T00:56:27.883Z,16.61
2017-02-22T00:57:08.378Z,16.52
2017-02-22T00:57:48.893Z,16.71
2017-02-22T00:58:29.373Z,16.52
2017-02-22T00:59:09.867Z,16.42
2017-02-22T00:59:50.348Z,16.42
2017-02-22T01:00:30.837Z,16.71
2017-02-22T01:01:11.328Z,16.61
2017-02-22T01:01:51.818Z,16.9
2017-02-22T01:02:32.335Z,16.61
2017-02-22T01:03:12.819Z,16.61
2017-02-22T01:03:53.328Z,16.61
2017-02-22T01:04:33.817Z,16.61
2017-02-22T01:05:14.337Z,16.71
2017-02-22T01:05:54.815Z,16.81
2017-02-22T01:06:35.326Z,16.81
2017-02-22T01:07:15.813Z,16.81
2017-02-22T01:07:56.327Z,16.61
2017-02-22T01:08:37.065Z,16.9
2017-02-22T01:09:17.563Z,16.61
2017-02-22T01:09:58.046Z,16.61
2017-02-22T01:10:38.531Z,16.61
2017-02-22T01:11:19.016Z,16.71
2017-02-22T01:11:59.505Z,16.61
2017-02-22T01:12:40.005Z,16.52
2017-02-22T01:13:20.491Z,16.71
2017-02-22T01:14:00.983Z,16.71
2017-02-22T01:14:41.464Z,17
2017-02-22T01:15:21.968Z,16.81
2017-02-22T01:16:02.460Z,16.9
2017-02-22T01:16:42.980Z,16.9
2017-02-22T01:17:23.464Z,16.9
2017-02-22T01:18:03.964Z,16.71
2017-02-22T01:18:44.457Z,16.71
2017-02-22T01:19:24.951Z,16.9
2017-02-22T01:20:05.430Z,16.71
2017-02-22T01:20:45.929Z,16.9
2017-02-22T01:21:26.419Z,16.9
2017-02-22T01:22:06.913Z,16.9
2017-02-22T01:22:47.408Z,16.9
2017-02-22T01:23:27.905Z,17
2017-02-22T01:24:08.383Z,17.1
2017-02-22T01:24:48.875Z,16.9
2017-02-22T01:25:29.367Z,17
2017-02-22T01:26:09.859Z,16.81
2017-02-22T01:26:50.348Z,16.9
2017-02-22T01:27:30.856Z,17.1
2017-02-22T01:28:11.346Z,17
2017-02-22T01:28:51.843Z,17
2017-02-22T01:29:32.340Z,17
2017-02-22T01:30:12.837Z,17
2017-02-22T01:30:53.321Z,17.1
2017-02-22T01:31:33.814Z,16.9
2017-02-22T01:32:14.311Z,17.1
2017-02-22T01:32:54.795Z,17
2017-02-22T01:33:35.298Z,16.9
2017-02-22T01:34:15.792Z,16.9
2017-02-22T01:34:56.284Z,16.9
2017-02-22T01:35:36.783Z,16.81
2017-02-22T01:36:17.268Z,16.81
2017-02-22T01:36:57.763Z,16.9
2017-02-22T01:37:38.261Z,17.1
2017-02-22T01:38:18.761Z,16.9
2017-02-22T01:38:59.253Z,16.9
2017-02-22T01:39:39.743Z,17.1
2017-02-22T01:40:20.233Z,17.1
2017-02-22T01:41:00.727Z,17
2017-02-22T01:41:41.231Z,17.1
2017-02-22T01:42:21.728Z,17.1
2017-02-22T01:43:02.231Z,17.1
2017-02-22T01:43:42.722Z,17.29
2017-02-22T01:44:23.220Z,17.19
2017-02-22T01:45:03.707Z,17.19
2017-02-22T01:45:44.191Z,17.19
2017-02-22T01:46:24.679Z,17.29
2017-02-22T01:47:05.183Z,17.19
2017-02-22T01:47:45.675Z,17.29
2017-02-22T01:48:26.185Z,17.29
2017-02-22T01:49:06.674Z,17.1
2017-02-22T01:49:47.161Z,17.19
2017-02-22T01:50:27.646Z,17.1
2017-02-22T01:51:08.142Z,17.1
2017-02-22T01:51:48.647Z,17.19
2017-02-22T01:52:29.143Z,17
2017-02-22T01:53:09.643Z,17
2017-02-22T01:53:50.139Z,17.1
2017-02-22T01:54:30.643Z,17.1
2017-02-22T01:55:11.292Z,17.19
2017-02-22T01:55:51.780Z,17
2017-02-22T01:56:32.275Z,16.9
2017-02-22T01:57:12.765Z,16.9
2017-02-22T01:57:53.260Z,17.29
2017-02-22T01:58:33.743Z,17.48
2017-02-22T01:59:14.233Z,17.29
2017-02-22T01:59:54.723Z,17.39
2017-02-22T02:00:35.212Z,17.39
2017-02-22T02:01:15.727Z,17.48
2017-02-22T02:01:56.220Z,17.29
2017-02-22T02:02:36.719Z,17.19
2017-02-22T02:03:17.210Z,17.48
2017-02-22T02:03:57.706Z,17.39
2017-02-22T02:04:38.424Z,17.39
2017-02-22T02:05:18.919Z,17.39
2017-02-22T02:05:59.413Z,17.29
2017-02-22T02:06:39.909Z,17.1
2017-02-22T02:07:20.405Z,17.39
2017-02-22T02:08:00.902Z,17.19
2017-02-22T02:08:41.400Z,17.39
2017-02-22T02:09:21.888Z,17.39
2017-02-22T02:10:02.380Z,17.39
2017-02-22T02:10:42.865Z,17.39
2017-02-22T02:11:23.366Z,17.39
2017-02-22T02:12:03.854Z,17.39
2017-02-22T02:12:44.351Z,17.39
2017-02-22T02:13:24.849Z,17.48
2017-02-22T02:14:05.350Z,17.48
2017-02-22T02:14:45.841Z,17.48
2017-02-22T02:15:26.334Z,17.58
2017-02-22T02:16:06.822Z,17.48
2017-02-22T02:16:47.301Z,17.58
2017-02-22T02:17:27.797Z,17.87
2017-02-22T02:18:08.295Z,17.68
2017-02-22T02:18:48.805Z,17.68
2017-02-22T02:19:29.298Z,17.97
2017-02-22T02:20:09.793Z,17.77
2017-02-22T02:20:50.289Z,17.68
2017-02-22T02:21:30.771Z,17.77
2017-02-22T02:22:11.259Z,17.77
2017-02-22T02:22:51.748Z,17.97
2017-02-22T02:23:32.260Z,17.97
2017-02-22T02:24:12.743Z,17.87
2017-02-22T02:24:53.235Z,17.97
2017-02-22T02:25:33.730Z,17.87
2017-02-22T02:26:14.221Z,17.87
2017-02-22T02:26:54.707Z,17.97
2017-02-22T02:27:35.199Z,18.06
2017-02-22T02:28:15.697Z,18.06
2017-02-22T02:28:56.186Z,17.97
2017-02-22T02:29:36.835Z,17.97
2017-02-22T02:30:17.356Z,17.97
2017-02-22T02:30:57.842Z,17.97
2017-02-22T02:31:38.347Z,17.97
2017-02-22T02:32:18.837Z,18.06
2017-02-22T02:32:59.336Z,17.97
2017-02-22T02:33:39.851Z,17.97
2017-02-22T02:34:20.344Z,17.87
2017-02-22T02:35:00.829Z,17.97
2017-02-22T02:35:41.342Z,17.97
2017-02-22T02:36:21.831Z,18.06
2017-02-22T02:37:02.343Z,18.35
2017-02-22T02:37:42.832Z,18.16
2017-02-22T02:38:23.326Z,18.16
2017-02-22T02:39:03.820Z,18.26
2017-02-22T02:39:44.310Z,18.16
2017-02-22T02:40:24.798Z,18.16
2017-02-22T02:41:05.280Z,18.26
2017-02-22T02:41:45.786Z,18.26
2017-02-22T02:42:26.275Z,18.06
2017-02-22T02:43:07.484Z,18.06
2017-02-22T02:43:47.276Z,17.97
2017-02-22T02:44:27.784Z,17.97
2017-02-22T02:45:08.276Z,17.87
2017-02-22T02:45:48.785Z,17.87
2017-02-22T02:46:29.274Z,18.16
2017-02-22T02:47:09.779Z,18.35
2017-02-22T02:47:50.270Z,18.35
2017-02-22T02:48:30.768Z,18.26
2017-02-22T02:49:11.266Z,18.35
2017-02-22T02:49:51.770Z,18.26
2017-02-22T02:50:32.264Z,18.06
2017-02-22T02:51:12.762Z,18.16
2017-02-22T02:51:53.245Z,18.16
2017-02-22T02:52:33.738Z,18.16
2017-02-22T02:53:14.259Z,18.45
2017-02-22T02:53:54.745Z,18.35
2017-02-22T02:54:35.233Z,18.35
2017-02-22T02:55:15.727Z,18.45
2017-02-22T02:55:56.225Z,18.35
2017-02-22T02:56:36.713Z,18.35
2017-02-22T02:57:17.219Z,18.55
2017-02-22T02:57:57.711Z,18.55
2017-02-22T02:58:38.217Z,18.74
2017-02-22T02:59:18.709Z,18.64
2017-02-22T02:59:59.421Z,18.64
2017-02-22T03:00:39.941Z,18.64
2017-02-22T03:01:20.434Z,18.55
2017-02-22T03:02:00.925Z,18.84
2017-02-22T03:02:41.425Z,18.84
2017-02-22T03:03:21.910Z,18.93
2017-02-22T03:04:02.406Z,18.64
2017-02-22T03:04:42.908Z,18.64
2017-02-22T03:05:23.403Z,18.74
2017-02-22T03:06:03.899Z,18.74
2017-02-22T03:08:16.701Z,18.84
2017-02-22T03:08:57.188Z,18.84
2017-02-22T03:09:37.675Z,19.03
2017-02-22T03:10:18.167Z,18.74
2017-02-22T03:10:58.649Z,18.84
2017-02-22T03:11:39.142Z,18.74
2017-02-22T03:12:19.617Z,18.64
2017-02-22T03:13:00.108Z,18.74
2017-02-22T03:13:40.592Z,18.74
2017-02-22T03:14:21.086Z,18.74
2017-02-22T03:15:01.580Z,18.74
2017-02-22T03:15:42.079Z,18.74
2017-02-22T03:16:22.575Z,18.64
2017-02-22T03:17:03.059Z,18.93
2017-02-22T03:17:43.569Z,18.84
2017-02-22T03:18:24.058Z,18.84
2017-02-22T03:19:04.554Z,18.84
2017-02-22T03:19:45.059Z,18.93
2017-02-22T03:20:25.566Z,18.93
2017-02-22T03:21:06.060Z,18.93
2017-02-22T03:21:46.550Z,18.93
2017-02-22T03:22:27.031Z,18.93
2017-02-22T03:23:07.511Z,18.84
2017-02-22T03:23:48.009Z,18.84
2017-02-22T03:24:28.666Z,19.03
2017-02-22T03:25:09.155Z,19.03
2017-02-22T03:25:49.651Z,19.12
2017-02-22T03:26:30.151Z,19.03
2017-02-22T03:27:10.646Z,19.03
2017-02-22T03:27:51.147Z,19.03
2017-02-22T03:28:31.627Z,19.12
2017-02-22T03:29:12.124Z,19.03
2017-02-22T03:29:52.601Z,19.12
2017-02-22T03:30:33.119Z,19.12
2017-02-22T03:31:13.607Z,19.12
2017-02-22T03:31:54.104Z,19.12
2017-02-22T03:32:34.597Z,19.12
2017-02-22T03:33:15.090Z,19.03
2017-02-22T03:33:55.583Z,19.22
2017-02-22T03:34:36.063Z,19.03
2017-02-22T03:35:16.561Z,19.22
2017-02-22T03:35:57.040Z,19.51
2017-02-22T03:36:37.537Z,19.32
2017-02-22T03:37:18.029Z,19.42
2017-02-22T03:37:58.517Z,19.32
2017-02-22T03:38:39.008Z,19.32
2017-02-22T03:39:19.490Z,19.32
2017-02-22T03:39:59.997Z,19.42
2017-02-22T03:40:40.485Z,19.42
2017-02-22T03:41:21.001Z,19.42
2017-02-22T03:42:01.461Z,19.32
2017-02-22T03:42:41.958Z,19.42
2017-02-22T03:43:22.448Z,19.22
2017-02-22T03:44:02.931Z,19.32
2017-02-22T03:44:43.427Z,19.22
2017-02-22T03:45:23.927Z,19.42
2017-02-22T03:46:04.425Z,19.42
2017-02-22T03:46:44.931Z,19.42
2017-02-22T03:47:25.436Z,19.22
2017-02-22T03:48:05.927Z,19.42
2017-02-22T03:48:46.422Z,19.32
2017-02-22T03:49:26.925Z,19.51
2017-02-22T03:50:07.438Z,19.32
2017-02-22T03:50:47.924Z,19.42
2017-02-22T03:51:28.418Z,19.42
2017-02-22T03:52:08.920Z,19.32
2017-02-22T03:52:49.421Z,19.32
2017-02-22T03:53:29.918Z,19.51
2017-02-22T03:54:10.440Z,19.22
2017-02-22T03:54:50.925Z,19.32
2017-02-22T03:55:31.430Z,19.32
2017-02-22T03:56:11.920Z,19.22
2017-02-22T03:56:52.416Z,19.51
2017-02-22T03:57:32.919Z,19.61
2017-02-22T03:58:13.415Z,19.61
2017-02-22T03:58:53.901Z,19.43
2017-02-22T03:59:34.397Z,19.42
2017-02-22T04:00:14.880Z,19.42
2017-02-22T04:00:55.671Z,19.42
2017-02-22T04:01:36.084Z,19.32
2017-02-22T04:02:16.569Z,19.61
2017-02-22T04:02:57.064Z,19.23
2017-02-22T04:03:37.544Z,19.22
2017-02-22T04:04:18.036Z,19.71
2017-02-22T04:04:58.531Z,19.8
2017-02-22T04:05:39.013Z,19.23
2017-02-22T04:06:19.522Z,19.23
2017-02-22T04:07:00.011Z,19.33
2017-02-22T04:07:40.504Z,19.51
2017-02-22T04:08:20.989Z,19.42
2017-02-22T04:09:01.479Z,19.8
2017-02-22T04:09:41.971Z,19.7
2017-02-22T04:10:22.460Z,19.71
2017-02-22T04:11:02.984Z,19.51
2017-02-22T04:11:43.458Z,19.62
2017-02-22T04:12:23.945Z,19.81
2017-02-22T04:13:04.430Z,19.71
2017-02-22T04:13:44.920Z,19.91
2017-02-22T04:14:25.412Z,19.9
2017-02-22T04:15:05.901Z,19.7
2017-02-22T04:15:46.397Z,19.91
2017-02-22T04:16:26.897Z,19.81
2017-02-22T04:17:07.400Z,19.81
2017-02-22T04:17:47.895Z,19.91
2017-02-22T04:18:28.397Z,19.91
2017-02-22T04:19:08.902Z,20
2017-02-22T04:19:49.407Z,20
2017-02-22T04:20:29.897Z,19.91
2017-02-22T04:21:10.392Z,19.9
2017-02-22T04:21:50.887Z,20.01
2017-02-22T04:22:31.374Z,19.81
2017-02-22T04:23:11.872Z,20.01
2017-02-22T04:23:52.363Z,20.19
2017-02-22T04:24:32.855Z,19.9
2017-02-22T04:25:13.347Z,19.81
2017-02-22T04:25:53.856Z,20
2017-02-22T04:26:34.341Z,20
2017-02-22T04:27:14.834Z,19.91
2017-02-22T04:27:55.331Z,20.09
2017-02-22T04:28:35.815Z,20.01
2017-02-22T04:29:16.306Z,20
2017-02-22T04:29:56.797Z,19.9
2017-02-22T04:30:37.285Z,20
2017-02-22T04:31:17.784Z,20.01
2017-02-22T04:31:58.285Z,20.01
2017-02-22T04:32:38.781Z,20.09
2017-02-22T04:33:19.293Z,20.1
2017-02-22T04:33:59.782Z,20.2
2017-02-22T04:34:40.294Z,20.1
2017-02-22T04:35:20.783Z,20.1
2017-02-22T04:36:01.278Z,20.1
2017-02-22T04:36:41.779Z,19.9
2017-02-22T04:37:22.272Z,19.9
2017-02-22T04:38:02.756Z,19.91
2017-02-22T04:38:43.261Z,19.81
2017-02-22T04:39:23.744Z,20.01
2017-02-22T04:40:04.227Z,19.91
2017-02-22T04:40:44.716Z,20
2017-02-22T04:41:25.201Z,20.29
2017-02-22T04:42:05.678Z,20.09
2017-02-22T04:42:46.169Z,20.1
2017-02-22T04:43:27.659Z,20.38
2017-02-22T04:44:11.780Z,20.28
2017-02-22T04:44:51.555Z,20.38
2017-02-22T04:45:33.799Z,20.09
2017-02-22T04:46:15.577Z,20.2
2017-02-22T04:46:56.370Z,20.19
2017-02-22T04:47:37.933Z,20.19
2017-02-22T04:48:18.679Z,20.19
2017-02-22T04:49:01.786Z,20.29
2017-02-22T04:49:41.787Z,20.09
2017-02-22T04:50:23.955Z,20.28
2017-02-22T04:51:05.693Z,20.2
2017-02-22T04:51:49.283Z,20.1
2017-02-22T04:52:28.039Z,20.19
2017-02-22T04:53:09.848Z,20.01
2017-02-22T04:53:51.782Z,20.28
2017-02-22T04:54:34.857Z,20
2017-02-22T04:55:16.480Z,20
2017-02-22T04:55:59.839Z,20.28
2017-02-22T04:56:44.853Z,20.67
2017-02-22T04:57:29.383Z,20.39
2017-02-22T04:58:09.365Z,20.28
2017-02-22T04:58:49.873Z,20.29
2017-02-22T04:59:31.865Z,20.29
2017-02-22T05:00:15.342Z,20.57
2017-02-22T05:00:57.845Z,20.48
2017-02-22T05:01:40.849Z,20.49
2017-02-22T05:02:20.395Z,20.28
2017-02-22T05:03:00.877Z,20.28
2017-02-22T05:03:41.370Z,20.38
2017-02-22T05:04:23.901Z,20.38
2017-02-22T05:05:05.420Z,20.48
2017-02-22T05:05:45.927Z,20.49
2017-02-22T05:06:26.417Z,20.67
2017-02-22T05:07:06.915Z,20.49
2017-02-22T05:07:47.413Z,20.39
2017-02-22T05:08:27.924Z,20.39
2017-02-22T05:09:08.413Z,20.38
2017-02-22T05:09:48.910Z,20.48
2017-02-22T05:10:29.411Z,20.49
2017-02-22T05:11:09.929Z,20.49
2017-02-22T05:11:50.414Z,20.49
2017-02-22T05:12:30.909Z,20.59
2017-02-22T05:13:11.407Z,20.67
2017-02-22T05:13:51.919Z,20.67
2017-02-22T05:14:32.410Z,20.67
2017-02-22T05:15:12.889Z,20.67
2017-02-22T05:15:53.383Z,20.57
2017-02-22T05:16:33.884Z,20.57
2017-02-22T05:17:14.376Z,20.68
2017-02-22T05:17:54.873Z,20.59
2017-02-22T05:18:35.365Z,20.68
2017-02-22T05:19:15.852Z,20.57
2017-02-22T05:19:56.369Z,20.68
2017-02-22T05:20:36.856Z,20.57
2017-02-22T05:21:17.368Z,20.68
2017-02-22T05:21:57.851Z,20.59
2017-02-22T05:22:38.372Z,20.49
2017-02-22T05:23:18.854Z,20.68
2017-02-22T05:23:59.358Z,20.59
2017-02-22T05:24:39.868Z,20.57
2017-02-22T05:25:20.360Z,20.59
2017-02-22T05:26:00.847Z,20.68
2017-02-22T05:26:41.341Z,20.57
2017-02-22T05:27:21.836Z,20.68
2017-02-22T05:28:02.310Z,20.49
2017-02-22T05:28:42.803Z,20.59
2017-02-22T05:29:23.291Z,20.49
2017-02-22T05:30:03.786Z,20.49
2017-02-22T05:30:44.282Z,20.59
2017-02-22T05:31:24.768Z,20.59
2017-02-22T05:32:05.272Z,20.59
2017-02-22T05:32:45.765Z,20.68
2017-02-22T05:33:26.267Z,20.49
2017-02-22T05:34:06.745Z,20.68
2017-02-22T05:34:47.245Z,20.59
2017-02-22T05:35:27.736Z,20.78
2017-02-22T05:36:08.230Z,20.78
2017-02-22T05:36:48.713Z,20.78
2017-02-22T05:37:29.190Z,20.57
2017-02-22T05:38:09.691Z,20.59
2017-02-22T05:38:50.179Z,20.59
2017-02-22T05:39:30.689Z,20.59
2017-02-22T05:40:11.180Z,20.78
2017-02-22T05:40:51.691Z,20.49
2017-02-22T05:41:32.181Z,20.68
2017-02-22T05:42:12.677Z,20.59
2017-02-22T05:42:53.174Z,20.57
2017-02-22T05:43:33.659Z,20.78
2017-02-22T05:44:14.142Z,20.68
2017-02-22T05:44:54.627Z,20.87
2017-02-22T05:45:35.123Z,20.59
2017-02-22T05:46:15.626Z,20.68
2017-02-22T05:46:56.131Z,20.49
2017-02-22T05:47:36.623Z,20.59
2017-02-22T05:48:17.111Z,20.59
2017-02-22T05:48:57.593Z,20.78
2017-02-22T05:49:38.089Z,20.68
2017-02-22T05:50:18.592Z,20.78
2017-02-22T05:50:59.079Z,20.78
2017-02-22T05:51:39.592Z,20.87
2017-02-22T05:52:20.075Z,20.87
2017-02-22T05:53:00.580Z,20.68
2017-02-22T05:53:41.066Z,20.78
2017-02-22T05:54:21.602Z,20.78
2017-02-22T05:55:02.078Z,20.59
2017-02-22T05:55:42.574Z,20.87
2017-02-22T05:56:23.064Z,20.59
2017-02-22T05:57:03.559Z,20.78
2017-02-22T05:57:44.065Z,20.59
2017-02-22T05:58:24.566Z,20.59
2017-02-22T05:59:05.060Z,20.87
2017-02-22T05:59:45.553Z,20.97
2017-02-22T06:00:26.035Z,20.78
2017-02-22T06:01:06.536Z,20.78
2017-02-22T06:01:47.031Z,20.87
2017-02-22T06:02:27.526Z,20.59
2017-02-22T06:03:08.234Z,20.97
2017-02-22T06:03:48.726Z,20.86
2017-02-22T06:04:29.220Z,20.78
2017-02-22T06:05:09.698Z,20.78
2017-02-22T06:05:50.187Z,20.87
2017-02-22T06:06:30.679Z,20.78
2017-02-22T06:07:11.178Z,20.87
2017-02-22T06:07:51.683Z,20.77
2017-02-22T06:08:32.166Z,20.68
2017-02-22T06:09:12.649Z,20.87
2017-02-22T06:09:53.149Z,20.87
2017-02-22T06:10:33.638Z,20.68
2017-02-22T06:11:14.152Z,20.78
2017-02-22T06:11:54.608Z,20.77
2017-02-22T06:12:35.111Z,20.78
2017-02-22T06:13:15.604Z,20.77
2017-02-22T06:13:56.107Z,20.87
2017-02-22T06:14:36.595Z,20.97
2017-02-22T06:15:17.088Z,20.49
2017-02-22T06:15:57.574Z,20.49
2017-02-22T06:16:38.054Z,20.68
2017-02-22T06:17:18.551Z,21.07
2017-02-22T06:17:59.056Z,20.97
2017-02-22T06:18:39.557Z,20.59
2017-02-22T06:19:20.043Z,20.59
2017-02-22T06:20:00.537Z,20.97
2017-02-22T06:20:41.044Z,21.06
2017-02-22T06:21:21.533Z,20.87
2017-02-22T06:22:02.041Z,20.59
2017-02-22T06:22:42.532Z,20.97
2017-02-22T06:23:23.033Z,21.17
2017-02-22T06:24:03.549Z,21.26
2017-02-22T06:24:44.058Z,21.25
2017-02-22T06:25:24.545Z,21.07
2017-02-22T06:26:05.038Z,20.97
2017-02-22T06:26:45.544Z,21.07
2017-02-22T06:27:26.028Z,21.26
2017-02-22T06:28:06.540Z,21.07
2017-02-22T06:28:47.038Z,21.17
2017-02-22T06:29:27.530Z,21.15
2017-02-22T06:30:08.030Z,20.97
2017-02-22T06:30:48.550Z,20.97
2017-02-22T06:31:29.034Z,20.97
2017-02-22T06:32:09.536Z,21.17
2017-02-22T06:32:50.033Z,21.26
2017-02-22T06:33:30.538Z,21.17
2017-02-22T06:34:11.025Z,21.25
2017-02-22T06:34:51.526Z,21.15
2017-02-22T06:35:32.022Z,21.26
2017-02-22T06:36:12.517Z,21.17
2017-02-22T06:36:53.015Z,21.26
2017-02-22T06:37:33.504Z,21.26
2017-02-22T06:38:14.000Z,21.07
2017-02-22T06:38:54.500Z,21.26
2017-02-22T06:39:34.991Z,21.17
2017-02-22T06:40:15.479Z,20.87
2017-02-22T06:40:55.978Z,21.26
2017-02-22T06:41:36.473Z,21.17
2017-02-22T06:42:16.981Z,21.07
2017-02-22T06:42:57.469Z,21.17
2017-02-22T06:43:37.961Z,21.07
2017-02-22T06:44:18.456Z,21.07
2017-02-22T06:44:58.976Z,20.87
2017-02-22T06:45:39.463Z,20.97
2017-02-22T06:46:19.959Z,20.97
2017-02-22T06:47:00.442Z,20.97
2017-02-22T06:47:40.935Z,21.17
2017-02-22T06:48:21.440Z,20.97
2017-02-22T06:49:01.928Z,20.87
2017-02-22T06:49:42.417Z,20.97
2017-02-22T06:50:22.907Z,21.07
2017-02-22T06:51:03.421Z,20.87
2017-02-22T06:51:43.911Z,21.07
2017-02-22T06:52:24.402Z,20.97
2017-02-22T06:53:04.884Z,20.87
2017-02-22T06:53:45.373Z,20.87
2017-02-22T06:54:25.858Z,20.87
2017-02-22T06:55:06.349Z,20.97
2017-02-22T06:55:46.835Z,20.97
2017-02-22T06:56:27.321Z,20.87
2017-02-22T06:57:07.807Z,20.87
2017-02-22T06:57:48.312Z,20.87
2017-02-22T06:58:28.801Z,20.87
2017-02-22T06:59:09.291Z,20.97
2017-02-22T06:59:49.794Z,20.97
2017-02-22T07:00:30.295Z,20.97
2017-02-22T07:01:10.797Z,20.87
2017-02-22T07:01:51.295Z,21.17
2017-02-22T07:02:31.792Z,21.17
2017-02-22T07:03:12.295Z,21.45
2017-02-22T07:03:52.767Z,21.45
2017-02-22T07:04:33.255Z,21.36
2017-02-22T07:05:13.751Z,21.45
2017-02-22T07:05:54.240Z,21.55
2017-02-22T07:06:34.749Z,21.55
2017-02-22T07:07:15.248Z,21.55
2017-02-22T07:07:55.745Z,21.55
2017-02-22T07:08:36.239Z,21.45
2017-02-22T07:09:16.735Z,21.36
2017-02-22T07:09:57.232Z,21.45
2017-02-22T07:10:37.694Z,21.36
2017-02-22T07:11:18.196Z,21.36
2017-02-22T07:11:58.686Z,21.65
2017-02-22T07:12:39.182Z,21.45
2017-02-22T07:13:19.685Z,21.55
2017-02-22T07:14:00.376Z,21.36
2017-02-22T07:14:40.877Z,21.45
2017-02-22T07:15:21.368Z,21.55
2017-02-22T07:16:01.851Z,21.45
2017-02-22T07:16:43.307Z,21.75
2017-02-22T07:17:23.807Z,21.55
2017-02-22T07:18:04.305Z,21.55
2017-02-22T07:18:44.783Z,21.84
2017-02-22T07:19:25.300Z,21.45
2017-02-22T07:20:05.800Z,21.36
2017-02-22T07:20:46.275Z,21.36
2017-02-22T07:21:26.781Z,21.65
2017-02-22T07:22:07.853Z,21.65
2017-02-22T07:22:48.375Z,21.55
2017-02-22T07:23:28.874Z,21.65
2017-02-22T07:24:09.716Z,21.55
2017-02-22T07:24:50.200Z,21.65
2017-02-22T07:25:30.682Z,21.75
2017-02-22T07:26:11.171Z,21.65
2017-02-22T07:26:51.679Z,21.55
2017-02-22T07:27:32.169Z,21.55
2017-02-22T07:28:12.675Z,21.55
2017-02-22T07:28:53.184Z,21.65
2017-02-22T07:29:33.661Z,21.84
2017-02-22T07:30:14.164Z,21.45
2017-02-22T07:30:54.664Z,21.84
2017-02-22T07:31:35.166Z,21.92
2017-02-22T07:32:15.660Z,21.94
2017-02-22T07:32:56.160Z,21.65
2017-02-22T07:33:36.671Z,21.65
2017-02-22T07:34:17.190Z,21.94
2017-02-22T07:34:57.687Z,21.75
2017-02-22T07:35:38.217Z,21.65
2017-02-22T07:36:18.709Z,21.65
2017-02-22T07:36:59.210Z,21.65
2017-02-22T07:37:39.706Z,21.65
2017-02-22T07:38:20.193Z,21.65
2017-02-22T07:39:00.677Z,21.75
2017-02-22T07:39:41.168Z,21.65
2017-02-22T07:40:21.649Z,21.64
2017-02-22T07:41:02.162Z,22.03
2017-02-22T07:41:42.663Z,21.84
2017-02-22T07:42:23.152Z,21.65
2017-02-22T07:43:03.631Z,22.03
2017-02-22T07:43:44.120Z,21.65
2017-02-22T07:44:24.601Z,21.84
2017-02-22T07:45:05.116Z,21.94
2017-02-22T07:45:45.604Z,21.94
2017-02-22T07:46:26.108Z,21.84
2017-02-22T07:47:06.596Z,21.75
2017-02-22T07:47:47.092Z,21.84
2017-02-22T07:48:27.587Z,21.75
2017-02-22T07:49:08.077Z,21.84
2017-02-22T07:49:48.906Z,21.94
2017-02-22T07:50:29.413Z,21.94
2017-02-22T07:51:09.904Z,21.94
2017-02-22T07:51:50.413Z,21.84
2017-02-22T07:52:30.901Z,22.03
2017-02-22T07:53:11.394Z,22.03
2017-02-22T07:53:51.897Z,21.84
2017-02-22T07:54:32.395Z,22.03
2017-02-22T07:55:12.894Z,22.03
2017-02-22T07:55:53.407Z,21.75
2017-02-22T07:56:33.892Z,21.94
2017-02-22T07:57:14.393Z,21.84
2017-02-22T07:57:54.891Z,22.03
2017-02-22T07:58:35.387Z,22.03
2017-02-22T07:59:16.814Z,21.94
2017-02-22T07:59:57.304Z,21.94
2017-02-22T08:00:37.792Z,22.03
2017-02-22T08:01:18.284Z,21.94
2017-02-22T08:01:58.788Z,22.13
2017-02-22T08:02:39.280Z,22.03
2017-02-22T08:03:19.771Z,22.03
2017-02-22T08:04:00.277Z,22.03
2017-02-22T08:04:40.769Z,22.03
2017-02-22T08:05:21.258Z,22.13
2017-02-22T08:06:01.766Z,22.13
2017-02-22T08:06:42.257Z,22.42
2017-02-22T08:07:22.755Z,22.23
2017-02-22T08:08:03.872Z,22.42
2017-02-22T08:08:43.720Z,22.23
2017-02-22T08:09:24.216Z,22.33
2017-02-22T08:10:04.695Z,22.33
2017-02-22T08:10:45.202Z,22.23
2017-02-22T08:11:25.698Z,22.03
2017-02-22T08:12:06.195Z,22.03
2017-02-22T08:12:46.679Z,22.03
2017-02-22T08:13:27.178Z,22.03
2017-02-22T08:14:07.676Z,22.03
2017-02-22T08:14:48.179Z,22.03
2017-02-22T08:15:28.718Z,22.13
2017-02-22T08:16:09.240Z,22.03
2017-02-22T08:16:49.722Z,22.13
2017-02-22T08:17:30.312Z,22.13
2017-02-22T08:18:10.800Z,22.33
2017-02-22T08:18:51.322Z,22.13
2017-02-22T08:19:31.804Z,22.03
2017-02-22T08:20:12.292Z,22.03
2017-02-22T08:20:52.788Z,22.03
2017-02-22T08:21:33.265Z,22.33
2017-02-22T08:22:13.773Z,22.03
2017-02-22T08:22:54.260Z,21.94
2017-02-22T08:23:34.753Z,22.23
2017-02-22T08:24:15.239Z,22.23
2017-02-22T08:24:55.737Z,22.23
2017-02-22T08:25:36.709Z,22.23
2017-02-22T08:26:17.201Z,22.13
2017-02-22T08:26:57.698Z,22.23
2017-02-22T08:27:38.203Z,22.23
2017-02-22T08:28:18.717Z,22.33
2017-02-22T08:28:59.200Z,22.03
2017-02-22T08:29:39.696Z,22.03
2017-02-22T08:30:20.199Z,22.42
2017-02-22T08:31:00.692Z,22.13
2017-02-22T08:31:41.185Z,22.13
2017-02-22T08:32:21.653Z,22.03
2017-02-22T08:33:02.155Z,22.03
2017-02-22T08:33:42.643Z,22.03
2017-02-22T08:34:23.149Z,22.03
2017-02-22T08:35:03.642Z,22.23
2017-02-22T08:35:44.138Z,22.03
2017-02-22T08:36:24.638Z,22.03
2017-02-22T08:37:05.149Z,22.23
2017-02-22T08:37:45.634Z,22.33
2017-02-22T08:38:26.124Z,22.13
2017-02-22T08:39:06.614Z,22.33
2017-02-22T08:39:47.099Z,22.23
2017-02-22T08:40:27.597Z,22.13
2017-02-22T08:41:08.087Z,22.03
2017-02-22T08:41:48.593Z,22.33
2017-02-22T08:42:29.084Z,22.23
2017-02-22T08:43:09.590Z,22.23
2017-02-22T08:43:50.088Z,22.33
2017-02-22T08:44:30.590Z,22.33
2017-02-22T08:45:11.095Z,22.03
2017-02-22T08:45:51.898Z,22.13
2017-02-22T08:46:32.388Z,22.33